sensor_id;sensor_type;location;lat;lon;timestamp;P1;durP1;ratioP1;P2;durP2;ratioP2
16963;SDS011;8598;50.508;10.436;2023-04-25T00:00:56;11.10;;;6.83;;
16963;SDS011;8598;50.508;10.436;2023-04-25T00:03:22;10.73;;;6.77;;
16963;SDS011;8598;50.508;10.436;2023-04-25T00:05:50;10.80;;;7.43;;
16963;SDS011;8598;50.508;10.436;2023-04-25T00:08:17;9.70;;;7.10;;
16963;SDS011;8598;50.508;10.436;2023-04-25T00:10:43;11.23;;;6.60;;
16963;SDS011;8598;50.508;10.436;2023-04-25T00:13:10;10.10;;;7.47;;
16963;SDS011;8598;50.508;10.436;2023-04-25T00:15:38;12.07;;;7.57;;
16963;SDS011;8598;50.508;10.436;2023-04-25T00:18:06;9.47;;;6.97;;
16963;SDS011;8598;50.508;10.436;2023-04-25T00:20:33;11.27;;;7.50;;
16963;SDS011;8598;50.508;10.436;2023-04-25T00:23:01;11.23;;;7.33;;
16963;SDS011;8598;50.508;10.436;2023-04-25T00:25:27;8.83;;;6.60;;
16963;SDS011;8598;50.508;10.436;2023-04-25T00:27:54;10.03;;;7.00;;
16963;SDS011;8598;50.508;10.436;2023-04-25T00:30:21;9.90;;;6.97;;
16963;SDS011;8598;50.508;10.436;2023-04-25T00:32:49;10.90;;;6.93;;
16963;SDS011;8598;50.508;10.436;2023-04-25T00:35:15;10.33;;;6.70;;
16963;SDS011;8598;50.508;10.436;2023-04-25T00:37:42;7.83;;;6.00;;
16963;SDS011;8598;50.508;10.436;2023-04-25T00:40:09;9.93;;;6.47;;
16963;SDS011;8598;50.508;10.436;2023-04-25T00:42:36;11.03;;;6.87;;
16963;SDS011;8598;50.508;10.436;2023-04-25T00:45:04;13.37;;;7.13;;
16963;SDS011;8598;50.508;10.436;2023-04-25T00:47:32;9.33;;;7.07;;
16963;SDS011;8598;50.508;10.436;2023-04-25T00:50:00;10.10;;;7.17;;
16963;SDS011;8598;50.508;10.436;2023-04-25T00:52:27;11.10;;;7.80;;
16963;SDS011;8598;50.508;10.436;2023-04-25T00:54:54;10.03;;;7.20;;
16963;SDS011;8598;50.508;10.436;2023-04-25T00:57:21;9.77;;;6.90;;
16963;SDS011;8598;50.508;10.436;2023-04-25T00:59:47;10.93;;;7.13;;
16963;SDS011;8598;50.508;10.436;2023-04-25T01:02:17;12.13;;;7.43;;
16963;SDS011;8598;50.508;10.436;2023-04-25T01:04:45;10.70;;;7.20;;
16963;SDS011;8598;50.508;10.436;2023-04-25T01:07:14;12.37;;;8.00;;
16963;SDS011;8598;50.508;10.436;2023-04-25T01:09:41;10.07;;;7.27;;
16963;SDS011;8598;50.508;10.436;2023-04-25T01:12:07;10.83;;;7.23;;
16963;SDS011;8598;50.508;10.436;2023-04-25T01:14:34;10.70;;;7.20;;
16963;SDS011;8598;50.508;10.436;2023-04-25T01:17:01;10.90;;;7.20;;
16963;SDS011;8598;50.508;10.436;2023-04-25T01:19:27;13.83;;;7.27;;
16963;SDS011;8598;50.508;10.436;2023-04-25T01:21:56;9.17;;;6.47;;
16963;SDS011;8598;50.508;10.436;2023-04-25T01:24:22;11.57;;;7.70;;
16963;SDS011;8598;50.508;10.436;2023-04-25T01:26:49;12.23;;;7.60;;
16963;SDS011;8598;50.508;10.436;2023-04-25T01:29:16;10.63;;;7.50;;
16963;SDS011;8598;50.508;10.436;2023-04-25T01:31:43;10.60;;;6.83;;
16963;SDS011;8598;50.508;10.436;2023-04-25T01:34:10;10.80;;;8.00;;
16963;SDS011;8598;50.508;10.436;2023-04-25T01:36:37;11.63;;;7.87;;
16963;SDS011;8598;50.508;10.436;2023-04-25T01:39:05;15.50;;;7.60;;
16963;SDS011;8598;50.508;10.436;2023-04-25T01:41:33;11.27;;;7.80;;
16963;SDS011;8598;50.508;10.436;2023-04-25T01:44:00;11.60;;;8.13;;
16963;SDS011;8598;50.508;10.436;2023-04-25T01:46:27;12.20;;;7.70;;
16963;SDS011;8598;50.508;10.436;2023-04-25T01:48:54;12.27;;;7.63;;
16963;SDS011;8598;50.508;10.436;2023-04-25T01:51:20;12.27;;;7.73;;
16963;SDS011;8598;50.508;10.436;2023-04-25T01:53:47;14.13;;;9.13;;
16963;SDS011;8598;50.508;10.436;2023-04-25T01:56:15;17.70;;;9.33;;
16963;SDS011;8598;50.508;10.436;2023-04-25T01:58:43;15.17;;;9.60;;
16963;SDS011;8598;50.508;10.436;2023-04-25T02:01:10;16.67;;;9.37;;
16963;SDS011;8598;50.508;10.436;2023-04-25T02:03:36;12.83;;;9.37;;
16963;SDS011;8598;50.508;10.436;2023-04-25T02:06:03;17.40;;;9.33;;
16963;SDS011;8598;50.508;10.436;2023-04-25T02:08:30;12.97;;;9.17;;
16963;SDS011;8598;50.508;10.436;2023-04-25T02:10:57;12.47;;;9.10;;
16963;SDS011;8598;50.508;10.436;2023-04-25T02:13:24;16.20;;;9.60;;
16963;SDS011;8598;50.508;10.436;2023-04-25T02:15:51;13.30;;;9.10;;
16963;SDS011;8598;50.508;10.436;2023-04-25T02:18:18;16.07;;;8.43;;
16963;SDS011;8598;50.508;10.436;2023-04-25T02:20:46;12.90;;;8.93;;
16963;SDS011;8598;50.508;10.436;2023-04-25T02:23:12;16.20;;;9.23;;
16963;SDS011;8598;50.508;10.436;2023-04-25T02:25:40;13.30;;;8.90;;
16963;SDS011;8598;50.508;10.436;2023-04-25T02:28:06;12.07;;;9.03;;
16963;SDS011;8598;50.508;10.436;2023-04-25T02:30:34;12.40;;;7.67;;
16963;SDS011;8598;50.508;10.436;2023-04-25T02:33:01;11.70;;;7.13;;
16963;SDS011;8598;50.508;10.436;2023-04-25T02:35:28;10.07;;;7.53;;
16963;SDS011;8598;50.508;10.436;2023-04-25T02:37:54;10.83;;;7.63;;
16963;SDS011;8598;50.508;10.436;2023-04-25T02:40:21;9.67;;;6.77;;
16963;SDS011;8598;50.508;10.436;2023-04-25T02:42:48;11.37;;;7.33;;
16963;SDS011;8598;50.508;10.436;2023-04-25T02:45:14;13.63;;;6.97;;
16963;SDS011;8598;50.508;10.436;2023-04-25T02:47:42;10.57;;;7.13;;
16963;SDS011;8598;50.508;10.436;2023-04-25T02:50:09;10.40;;;7.13;;
16963;SDS011;8598;50.508;10.436;2023-04-25T02:52:36;10.37;;;7.10;;
16963;SDS011;8598;50.508;10.436;2023-04-25T02:55:02;9.57;;;6.43;;
16963;SDS011;8598;50.508;10.436;2023-04-25T02:57:29;10.77;;;6.60;;
16963;SDS011;8598;50.508;10.436;2023-04-25T02:59:56;11.20;;;6.03;;
16963;SDS011;8598;50.508;10.436;2023-04-25T03:02:23;11.10;;;7.17;;
16963;SDS011;8598;50.508;10.436;2023-04-25T03:04:50;10.83;;;6.40;;
16963;SDS011;8598;50.508;10.436;2023-04-25T03:07:17;8.13;;;6.43;;
16963;SDS011;8598;50.508;10.436;2023-04-25T03:09:44;8.40;;;6.60;;
16963;SDS011;8598;50.508;10.436;2023-04-25T03:12:10;6.80;;;5.70;;
16963;SDS011;8598;50.508;10.436;2023-04-25T03:14:37;9.07;;;6.33;;
16963;SDS011;8598;50.508;10.436;2023-04-25T03:17:04;11.00;;;6.60;;
16963;SDS011;8598;50.508;10.436;2023-04-25T03:19:30;7.57;;;6.10;;
16963;SDS011;8598;50.508;10.436;2023-04-25T03:21:58;9.07;;;6.13;;
16963;SDS011;8598;50.508;10.436;2023-04-25T03:24:25;8.53;;;6.07;;
16963;SDS011;8598;50.508;10.436;2023-04-25T03:26:52;8.20;;;6.20;;
16963;SDS011;8598;50.508;10.436;2023-04-25T03:29:18;10.37;;;6.20;;
16963;SDS011;8598;50.508;10.436;2023-04-25T03:31:49;9.43;;;6.40;;
16963;SDS011;8598;50.508;10.436;2023-04-25T03:34:15;7.87;;;6.23;;
16963;SDS011;8598;50.508;10.436;2023-04-25T03:36:42;12.47;;;6.73;;
16963;SDS011;8598;50.508;10.436;2023-04-25T03:39:10;8.33;;;6.57;;
16963;SDS011;8598;50.508;10.436;2023-04-25T03:41:37;10.90;;;6.87;;
16963;SDS011;8598;50.508;10.436;2023-04-25T03:44:03;8.30;;;6.27;;
16963;SDS011;8598;50.508;10.436;2023-04-25T03:46:30;11.73;;;6.60;;
16963;SDS011;8598;50.508;10.436;2023-04-25T03:48:56;10.73;;;6.73;;
16963;SDS011;8598;50.508;10.436;2023-04-25T03:51:24;8.73;;;6.87;;
16963;SDS011;8598;50.508;10.436;2023-04-25T03:53:51;12.00;;;8.00;;
16963;SDS011;8598;50.508;10.436;2023-04-25T03:56:19;14.70;;;8.97;;
16963;SDS011;8598;50.508;10.436;2023-04-25T03:58:46;11.50;;;6.80;;
16963;SDS011;8598;50.508;10.436;2023-04-25T04:01:12;11.53;;;6.30;;
16963;SDS011;8598;50.508;10.436;2023-04-25T04:03:39;9.90;;;7.70;;
16963;SDS011;8598;50.508;10.436;2023-04-25T04:06:06;12.53;;;8.97;;
16963;SDS011;8598;50.508;10.436;2023-04-25T04:08:35;14.73;;;9.03;;
16963;SDS011;8598;50.508;10.436;2023-04-25T04:11:02;14.40;;;9.47;;
16963;SDS011;8598;50.508;10.436;2023-04-25T04:13:30;19.07;;;8.57;;
16963;SDS011;8598;50.508;10.436;2023-04-25T04:15:56;15.73;;;8.57;;
16963;SDS011;8598;50.508;10.436;2023-04-25T04:18:23;11.40;;;8.00;;
16963;SDS011;8598;50.508;10.436;2023-04-25T04:20:50;12.50;;;7.33;;
16963;SDS011;8598;50.508;10.436;2023-04-25T04:23:17;12.17;;;7.40;;
16963;SDS011;8598;50.508;10.436;2023-04-25T04:25:43;12.60;;;6.60;;
16963;SDS011;8598;50.508;10.436;2023-04-25T04:28:10;10.07;;;6.60;;
16963;SDS011;8598;50.508;10.436;2023-04-25T04:30:39;10.80;;;6.47;;
16963;SDS011;8598;50.508;10.436;2023-04-25T04:33:06;12.30;;;6.93;;
16963;SDS011;8598;50.508;10.436;2023-04-25T04:35:33;10.07;;;6.77;;
16963;SDS011;8598;50.508;10.436;2023-04-25T04:38:00;11.43;;;7.90;;
16963;SDS011;8598;50.508;10.436;2023-04-25T04:40:26;13.33;;;7.47;;
16963;SDS011;8598;50.508;10.436;2023-04-25T04:42:55;13.70;;;7.50;;
16963;SDS011;8598;50.508;10.436;2023-04-25T04:45:22;9.30;;;5.90;;
16963;SDS011;8598;50.508;10.436;2023-04-25T04:47:50;11.33;;;6.77;;
16963;SDS011;8598;50.508;10.436;2023-04-25T04:50:17;9.40;;;6.40;;
16963;SDS011;8598;50.508;10.436;2023-04-25T04:52:44;6.17;;;4.73;;
16963;SDS011;8598;50.508;10.436;2023-04-25T04:55:10;7.20;;;4.40;;
16963;SDS011;8598;50.508;10.436;2023-04-25T04:57:37;6.67;;;4.50;;
16963;SDS011;8598;50.508;10.436;2023-04-25T05:00:04;8.37;;;5.67;;
16963;SDS011;8598;50.508;10.436;2023-04-25T05:02:35;11.57;;;5.40;;
16963;SDS011;8598;50.508;10.436;2023-04-25T05:05:04;9.83;;;5.50;;
16963;SDS011;8598;50.508;10.436;2023-04-25T05:07:31;8.80;;;4.83;;
16963;SDS011;8598;50.508;10.436;2023-04-25T05:09:57;8.33;;;4.83;;
16963;SDS011;8598;50.508;10.436;2023-04-25T05:12:24;8.83;;;5.40;;
16963;SDS011;8598;50.508;10.436;2023-04-25T05:14:51;7.70;;;4.23;;
16963;SDS011;8598;50.508;10.436;2023-04-25T05:17:17;5.60;;;4.13;;
16963;SDS011;8598;50.508;10.436;2023-04-25T05:19:44;9.90;;;4.53;;
16963;SDS011;8598;50.508;10.436;2023-04-25T05:22:12;7.13;;;4.70;;
16963;SDS011;8598;50.508;10.436;2023-04-25T05:24:38;7.87;;;4.50;;
16963;SDS011;8598;50.508;10.436;2023-04-25T05:27:05;7.33;;;4.20;;
16963;SDS011;8598;50.508;10.436;2023-04-25T05:29:32;7.13;;;4.73;;
16963;SDS011;8598;50.508;10.436;2023-04-25T05:31:58;6.20;;;4.07;;
16963;SDS011;8598;50.508;10.436;2023-04-25T05:34:25;5.80;;;4.83;;
16963;SDS011;8598;50.508;10.436;2023-04-25T05:36:51;7.73;;;4.73;;
16963;SDS011;8598;50.508;10.436;2023-04-25T05:39:19;6.50;;;4.40;;
16963;SDS011;8598;50.508;10.436;2023-04-25T05:41:46;8.33;;;3.87;;
16963;SDS011;8598;50.508;10.436;2023-04-25T05:44:12;7.13;;;4.50;;
16963;SDS011;8598;50.508;10.436;2023-04-25T05:46:40;6.30;;;3.63;;
16963;SDS011;8598;50.508;10.436;2023-04-25T05:49:07;4.90;;;3.10;;
16963;SDS011;8598;50.508;10.436;2023-04-25T05:51:34;7.33;;;3.43;;
16963;SDS011;8598;50.508;10.436;2023-04-25T05:54:00;7.27;;;3.30;;
16963;SDS011;8598;50.508;10.436;2023-04-25T05:56:28;8.60;;;5.07;;
16963;SDS011;8598;50.508;10.436;2023-04-25T05:58:55;7.37;;;5.37;;
16963;SDS011;8598;50.508;10.436;2023-04-25T06:01:21;9.93;;;4.73;;
16963;SDS011;8598;50.508;10.436;2023-04-25T06:03:48;13.97;;;6.63;;
16963;SDS011;8598;50.508;10.436;2023-04-25T06:06:16;9.70;;;3.73;;
16963;SDS011;8598;50.508;10.436;2023-04-25T06:08:42;6.63;;;3.53;;
16963;SDS011;8598;50.508;10.436;2023-04-25T06:11:09;9.30;;;3.50;;
16963;SDS011;8598;50.508;10.436;2023-04-25T06:13:37;5.47;;;3.73;;
16963;SDS011;8598;50.508;10.436;2023-04-25T06:16:04;6.43;;;3.33;;
16963;SDS011;8598;50.508;10.436;2023-04-25T06:18:32;8.93;;;3.77;;
16963;SDS011;8598;50.508;10.436;2023-04-25T06:20:59;5.03;;;3.80;;
16963;SDS011;8598;50.508;10.436;2023-04-25T06:23:25;9.50;;;4.27;;
16963;SDS011;8598;50.508;10.436;2023-04-25T06:25:52;7.23;;;3.90;;
16963;SDS011;8598;50.508;10.436;2023-04-25T06:28:19;7.53;;;4.50;;
16963;SDS011;8598;50.508;10.436;2023-04-25T06:30:48;5.87;;;3.63;;
16963;SDS011;8598;50.508;10.436;2023-04-25T06:33:15;11.90;;;4.33;;
16963;SDS011;8598;50.508;10.436;2023-04-25T06:35:41;6.57;;;3.80;;
16963;SDS011;8598;50.508;10.436;2023-04-25T06:38:08;6.37;;;4.20;;
16963;SDS011;8598;50.508;10.436;2023-04-25T06:40:35;8.07;;;4.03;;
16963;SDS011;8598;50.508;10.436;2023-04-25T06:43:01;8.30;;;4.17;;
16963;SDS011;8598;50.508;10.436;2023-04-25T06:45:28;5.17;;;3.70;;
16963;SDS011;8598;50.508;10.436;2023-04-25T06:47:56;8.53;;;4.67;;
16963;SDS011;8598;50.508;10.436;2023-04-25T06:50:23;4.57;;;3.57;;
16963;SDS011;8598;50.508;10.436;2023-04-25T06:52:49;5.30;;;3.60;;
16963;SDS011;8598;50.508;10.436;2023-04-25T06:55:16;7.70;;;4.70;;
16963;SDS011;8598;50.508;10.436;2023-04-25T06:57:43;6.73;;;4.23;;
16963;SDS011;8598;50.508;10.436;2023-04-25T07:00:10;6.03;;;3.97;;
16963;SDS011;8598;50.508;10.436;2023-04-25T07:02:37;4.60;;;4.20;;
16963;SDS011;8598;50.508;10.436;2023-04-25T07:05:05;4.60;;;3.80;;
16963;SDS011;8598;50.508;10.436;2023-04-25T07:07:32;6.03;;;3.77;;
16963;SDS011;8598;50.508;10.436;2023-04-25T07:09:58;7.00;;;4.13;;
16963;SDS011;8598;50.508;10.436;2023-04-25T07:12:25;5.60;;;3.87;;
16963;SDS011;8598;50.508;10.436;2023-04-25T07:14:52;5.37;;;3.53;;
16963;SDS011;8598;50.508;10.436;2023-04-25T07:17:18;5.17;;;3.43;;
16963;SDS011;8598;50.508;10.436;2023-04-25T07:19:45;4.23;;;3.07;;
16963;SDS011;8598;50.508;10.436;2023-04-25T07:22:13;7.57;;;4.30;;
16963;SDS011;8598;50.508;10.436;2023-04-25T07:24:40;3.97;;;3.07;;
16963;SDS011;8598;50.508;10.436;2023-04-25T07:27:06;6.47;;;3.50;;
16963;SDS011;8598;50.508;10.436;2023-04-25T07:29:33;5.27;;;3.40;;
16963;SDS011;8598;50.508;10.436;2023-04-25T07:32:02;3.53;;;3.23;;
16963;SDS011;8598;50.508;10.436;2023-04-25T07:34:29;8.60;;;5.13;;
16963;SDS011;8598;50.508;10.436;2023-04-25T07:36:56;6.20;;;4.90;;
16963;SDS011;8598;50.508;10.436;2023-04-25T07:39:25;4.57;;;3.53;;
16963;SDS011;8598;50.508;10.436;2023-04-25T07:41:52;4.57;;;3.53;;
16963;SDS011;8598;50.508;10.436;2023-04-25T07:44:18;3.70;;;2.70;;
16963;SDS011;8598;50.508;10.436;2023-04-25T07:46:45;4.60;;;3.10;;
16963;SDS011;8598;50.508;10.436;2023-04-25T07:49:11;5.00;;;3.50;;
16963;SDS011;8598;50.508;10.436;2023-04-25T07:51:38;4.37;;;3.70;;
16963;SDS011;8598;50.508;10.436;2023-04-25T07:54:05;9.07;;;5.63;;
16963;SDS011;8598;50.508;10.436;2023-04-25T07:56:33;4.50;;;3.37;;
16963;SDS011;8598;50.508;10.436;2023-04-25T07:59:00;3.80;;;2.93;;
16963;SDS011;8598;50.508;10.436;2023-04-25T08:01:27;5.33;;;3.50;;
16963;SDS011;8598;50.508;10.436;2023-04-25T08:03:54;7.37;;;3.60;;
16963;SDS011;8598;50.508;10.436;2023-04-25T08:06:21;2.77;;;2.27;;
16963;SDS011;8598;50.508;10.436;2023-04-25T08:08:47;4.10;;;2.83;;
16963;SDS011;8598;50.508;10.436;2023-04-25T08:11:14;4.13;;;2.70;;
16963;SDS011;8598;50.508;10.436;2023-04-25T08:13:42;9.40;;;3.43;;
16963;SDS011;8598;50.508;10.436;2023-04-25T08:16:08;4.23;;;2.77;;
16963;SDS011;8598;50.508;10.436;2023-04-25T08:18:35;6.50;;;3.17;;
16963;SDS011;8598;50.508;10.436;2023-04-25T08:21:02;4.27;;;3.83;;
16963;SDS011;8598;50.508;10.436;2023-04-25T08:23:28;2.70;;;2.07;;
16963;SDS011;8598;50.508;10.436;2023-04-25T08:25:55;5.10;;;2.77;;
16963;SDS011;8598;50.508;10.436;2023-04-25T08:28:22;4.10;;;2.53;;
16963;SDS011;8598;50.508;10.436;2023-04-25T08:30:50;5.20;;;3.10;;
16963;SDS011;8598;50.508;10.436;2023-04-25T08:33:16;3.67;;;2.73;;
16963;SDS011;8598;50.508;10.436;2023-04-25T08:35:44;6.33;;;3.23;;
16963;SDS011;8598;50.508;10.436;2023-04-25T08:38:11;4.13;;;2.83;;
16963;SDS011;8598;50.508;10.436;2023-04-25T08:40:38;3.00;;;2.70;;
16963;SDS011;8598;50.508;10.436;2023-04-25T08:43:05;4.73;;;2.47;;
16963;SDS011;8598;50.508;10.436;2023-04-25T08:45:36;4.70;;;2.70;;
16963;SDS011;8598;50.508;10.436;2023-04-25T08:48:10;5.07;;;3.10;;
16963;SDS011;8598;50.508;10.436;2023-04-25T08:50:38;3.63;;;2.50;;
16963;SDS011;8598;50.508;10.436;2023-04-25T08:53:06;2.77;;;2.43;;
16963;SDS011;8598;50.508;10.436;2023-04-25T08:55:36;6.50;;;3.00;;
16963;SDS011;8598;50.508;10.436;2023-04-25T08:58:05;4.30;;;2.83;;
16963;SDS011;8598;50.508;10.436;2023-04-25T09:00:32;4.30;;;2.30;;
16963;SDS011;8598;50.508;10.436;2023-04-25T09:02:58;5.30;;;3.57;;
16963;SDS011;8598;50.508;10.436;2023-04-25T09:05:27;7.03;;;3.33;;
16963;SDS011;8598;50.508;10.436;2023-04-25T09:07:54;3.43;;;3.10;;
16963;SDS011;8598;50.508;10.436;2023-04-25T09:10:21;9.93;;;5.57;;
16963;SDS011;8598;50.508;10.436;2023-04-25T09:13:01;6.30;;;4.57;;
16963;SDS011;8598;50.508;10.436;2023-04-25T09:15:29;4.73;;;2.93;;
16963;SDS011;8598;50.508;10.436;2023-04-25T09:17:56;3.10;;;2.50;;
16963;SDS011;8598;50.508;10.436;2023-04-25T09:20:23;4.83;;;2.90;;
16963;SDS011;8598;50.508;10.436;2023-04-25T09:23:02;3.10;;;2.30;;
16963;SDS011;8598;50.508;10.436;2023-04-25T09:25:33;4.97;;;2.80;;
16963;SDS011;8598;50.508;10.436;2023-04-25T09:28:04;3.17;;;2.70;;
16963;SDS011;8598;50.508;10.436;2023-04-25T09:30:32;4.30;;;3.00;;
16963;SDS011;8598;50.508;10.436;2023-04-25T09:33:06;3.97;;;3.30;;
16963;SDS011;8598;50.508;10.436;2023-04-25T09:35:35;7.43;;;3.00;;
16963;SDS011;8598;50.508;10.436;2023-04-25T09:38:08;5.03;;;3.07;;
16963;SDS011;8598;50.508;10.436;2023-04-25T09:40:38;4.43;;;2.93;;
16963;SDS011;8598;50.508;10.436;2023-04-25T09:43:08;2.93;;;2.63;;
16963;SDS011;8598;50.508;10.436;2023-04-25T09:45:40;4.40;;;2.40;;
16963;SDS011;8598;50.508;10.436;2023-04-25T09:48:10;3.80;;;2.20;;
16963;SDS011;8598;50.508;10.436;2023-04-25T09:50:37;4.23;;;2.47;;
16963;SDS011;8598;50.508;10.436;2023-04-25T09:53:04;5.07;;;3.70;;
16963;SDS011;8598;50.508;10.436;2023-04-25T09:55:33;5.97;;;2.80;;
16963;SDS011;8598;50.508;10.436;2023-04-25T09:58:03;3.87;;;2.43;;
16963;SDS011;8598;50.508;10.436;2023-04-25T10:00:31;4.67;;;2.27;;
16963;SDS011;8598;50.508;10.436;2023-04-25T10:02:59;4.33;;;2.63;;
16963;SDS011;8598;50.508;10.436;2023-04-25T10:05:28;2.97;;;2.47;;
16963;SDS011;8598;50.508;10.436;2023-04-25T10:07:58;5.30;;;2.73;;
16963;SDS011;8598;50.508;10.436;2023-04-25T10:10:27;4.50;;;2.40;;
16963;SDS011;8598;50.508;10.436;2023-04-25T10:12:59;2.50;;;2.23;;
16963;SDS011;8598;50.508;10.436;2023-04-25T10:15:26;4.30;;;2.17;;
16963;SDS011;8598;50.508;10.436;2023-04-25T10:17:54;2.90;;;1.97;;
16963;SDS011;8598;50.508;10.436;2023-04-25T10:20:22;3.77;;;1.80;;
16963;SDS011;8598;50.508;10.436;2023-04-25T10:22:49;2.40;;;2.20;;
16963;SDS011;8598;50.508;10.436;2023-04-25T10:25:21;2.30;;;1.90;;
16963;SDS011;8598;50.508;10.436;2023-04-25T10:27:49;2.80;;;2.10;;
16963;SDS011;8598;50.508;10.436;2023-04-25T10:30:18;4.80;;;2.20;;
16963;SDS011;8598;50.508;10.436;2023-04-25T10:32:45;2.60;;;2.13;;
16963;SDS011;8598;50.508;10.436;2023-04-25T10:35:15;3.97;;;2.20;;
16963;SDS011;8598;50.508;10.436;2023-04-25T10:37:59;6.60;;;2.33;;
16963;SDS011;8598;50.508;10.436;2023-04-25T10:40:28;3.10;;;2.13;;
16963;SDS011;8598;50.508;10.436;2023-04-25T10:42:55;4.37;;;2.17;;
16963;SDS011;8598;50.508;10.436;2023-04-25T10:45:52;2.77;;;2.00;;
16963;SDS011;8598;50.508;10.436;2023-04-25T10:48:24;2.23;;;2.03;;
16963;SDS011;8598;50.508;10.436;2023-04-25T10:50:57;5.83;;;2.60;;
16963;SDS011;8598;50.508;10.436;2023-04-25T10:53:33;4.40;;;2.07;;
16963;SDS011;8598;50.508;10.436;2023-04-25T10:56:00;2.87;;;2.10;;
16963;SDS011;8598;50.508;10.436;2023-04-25T10:58:26;4.63;;;2.40;;
16963;SDS011;8598;50.508;10.436;2023-04-25T11:00:54;6.37;;;2.63;;
16963;SDS011;8598;50.508;10.436;2023-04-25T11:03:21;4.27;;;2.53;;
16963;SDS011;8598;50.508;10.436;2023-04-25T11:05:50;3.30;;;2.63;;
16963;SDS011;8598;50.508;10.436;2023-04-25T11:08:18;3.90;;;2.50;;
16963;SDS011;8598;50.508;10.436;2023-04-25T11:11:00;4.67;;;2.70;;
16963;SDS011;8598;50.508;10.436;2023-04-25T11:13:28;5.00;;;3.60;;
16963;SDS011;8598;50.508;10.436;2023-04-25T11:15:57;3.80;;;2.40;;
16963;SDS011;8598;50.508;10.436;2023-04-25T11:18:25;4.33;;;2.60;;
16963;SDS011;8598;50.508;10.436;2023-04-25T11:20:52;4.80;;;2.83;;
16963;SDS011;8598;50.508;10.436;2023-04-25T11:23:19;4.63;;;2.57;;
16963;SDS011;8598;50.508;10.436;2023-04-25T11:25:45;5.73;;;2.87;;
16963;SDS011;8598;50.508;10.436;2023-04-25T11:28:12;5.07;;;2.83;;
16963;SDS011;8598;50.508;10.436;2023-04-25T11:30:39;5.67;;;3.30;;
16963;SDS011;8598;50.508;10.436;2023-04-25T11:33:07;5.50;;;2.80;;
16963;SDS011;8598;50.508;10.436;2023-04-25T11:35:35;3.33;;;2.47;;
16963;SDS011;8598;50.508;10.436;2023-04-25T11:38:02;9.07;;;3.00;;
16963;SDS011;8598;50.508;10.436;2023-04-25T11:40:29;3.87;;;2.70;;
16963;SDS011;8598;50.508;10.436;2023-04-25T11:42:56;6.03;;;2.80;;
16963;SDS011;8598;50.508;10.436;2023-04-25T11:45:26;5.27;;;2.80;;
16963;SDS011;8598;50.508;10.436;2023-04-25T11:47:53;6.60;;;3.00;;
16963;SDS011;8598;50.508;10.436;2023-04-25T11:50:22;21.67;;;8.77;;
16963;SDS011;8598;50.508;10.436;2023-04-25T11:52:48;10.87;;;4.97;;
16963;SDS011;8598;50.508;10.436;2023-04-25T11:55:16;6.50;;;2.30;;
16963;SDS011;8598;50.508;10.436;2023-04-25T11:57:44;7.77;;;3.37;;
16963;SDS011;8598;50.508;10.436;2023-04-25T12:00:14;7.37;;;3.07;;
16963;SDS011;8598;50.508;10.436;2023-04-25T12:02:42;7.70;;;3.10;;
16963;SDS011;8598;50.508;10.436;2023-04-25T12:05:10;8.83;;;3.00;;
16963;SDS011;8598;50.508;10.436;2023-04-25T12:07:38;5.67;;;3.10;;
16963;SDS011;8598;50.508;10.436;2023-04-25T12:10:06;10.23;;;3.13;;
16963;SDS011;8598;50.508;10.436;2023-04-25T12:12:34;7.43;;;2.80;;
16963;SDS011;8598;50.508;10.436;2023-04-25T12:15:11;6.60;;;3.17;;
16963;SDS011;8598;50.508;10.436;2023-04-25T12:17:40;6.93;;;3.07;;
16963;SDS011;8598;50.508;10.436;2023-04-25T12:20:08;7.33;;;2.83;;
16963;SDS011;8598;50.508;10.436;2023-04-25T12:22:36;10.37;;;3.37;;
16963;SDS011;8598;50.508;10.436;2023-04-25T12:25:04;7.90;;;2.73;;
16963;SDS011;8598;50.508;10.436;2023-04-25T12:27:32;6.20;;;2.17;;
16963;SDS011;8598;50.508;10.436;2023-04-25T12:30:00;9.50;;;4.33;;
16963;SDS011;8598;50.508;10.436;2023-04-25T12:32:28;7.80;;;3.60;;
16963;SDS011;8598;50.508;10.436;2023-04-25T12:34:56;7.07;;;2.93;;
16963;SDS011;8598;50.508;10.436;2023-04-25T12:37:22;6.80;;;2.73;;
16963;SDS011;8598;50.508;10.436;2023-04-25T12:39:49;7.87;;;3.73;;
16963;SDS011;8598;50.508;10.436;2023-04-25T12:42:17;6.63;;;2.30;;
16963;SDS011;8598;50.508;10.436;2023-04-25T12:44:44;8.77;;;3.17;;
16963;SDS011;8598;50.508;10.436;2023-04-25T12:47:11;6.17;;;2.57;;
16963;SDS011;8598;50.508;10.436;2023-04-25T12:49:38;7.20;;;2.73;;
16963;SDS011;8598;50.508;10.436;2023-04-25T12:52:04;5.60;;;2.53;;
16963;SDS011;8598;50.508;10.436;2023-04-25T12:54:31;3.63;;;2.50;;
16963;SDS011;8598;50.508;10.436;2023-04-25T12:56:58;9.43;;;2.63;;
16963;SDS011;8598;50.508;10.436;2023-04-25T12:59:27;6.80;;;2.70;;
16963;SDS011;8598;50.508;10.436;2023-04-25T13:01:54;8.13;;;2.50;;
16963;SDS011;8598;50.508;10.436;2023-04-25T13:04:20;5.27;;;3.13;;
16963;SDS011;8598;50.508;10.436;2023-04-25T13:06:47;9.10;;;3.47;;
16963;SDS011;8598;50.508;10.436;2023-04-25T13:09:14;7.33;;;2.73;;
16963;SDS011;8598;50.508;10.436;2023-04-25T13:11:41;5.57;;;2.27;;
16963;SDS011;8598;50.508;10.436;2023-04-25T13:14:07;6.20;;;3.20;;
16963;SDS011;8598;50.508;10.436;2023-04-25T13:16:35;7.03;;;2.27;;
16963;SDS011;8598;50.508;10.436;2023-04-25T13:19:02;4.90;;;2.40;;
16963;SDS011;8598;50.508;10.436;2023-04-25T13:21:29;7.70;;;2.83;;
16963;SDS011;8598;50.508;10.436;2023-04-25T13:23:57;3.47;;;2.10;;
16963;SDS011;8598;50.508;10.436;2023-04-25T13:26:23;7.07;;;2.30;;
16963;SDS011;8598;50.508;10.436;2023-04-25T13:28:50;6.37;;;2.77;;
16963;SDS011;8598;50.508;10.436;2023-04-25T13:31:17;5.33;;;2.77;;
16963;SDS011;8598;50.508;10.436;2023-04-25T13:33:45;4.27;;;2.37;;
16963;SDS011;8598;50.508;10.436;2023-04-25T13:36:12;5.73;;;2.67;;
16963;SDS011;8598;50.508;10.436;2023-04-25T13:38:38;10.30;;;4.50;;
16963;SDS011;8598;50.508;10.436;2023-04-25T13:41:08;15.73;;;8.33;;
16963;SDS011;8598;50.508;10.436;2023-04-25T13:43:36;6.23;;;2.77;;
16963;SDS011;8598;50.508;10.436;2023-04-25T13:46:02;11.13;;;4.10;;
16963;SDS011;8598;50.508;10.436;2023-04-25T13:48:29;8.73;;;4.27;;
16963;SDS011;8598;50.508;10.436;2023-04-25T13:50:57;8.50;;;4.30;;
16963;SDS011;8598;50.508;10.436;2023-04-25T13:53:24;5.53;;;2.67;;
16963;SDS011;8598;50.508;10.436;2023-04-25T13:55:51;5.70;;;2.20;;
16963;SDS011;8598;50.508;10.436;2023-04-25T13:58:17;7.50;;;2.60;;
16963;SDS011;8598;50.508;10.436;2023-04-25T14:00:45;8.17;;;2.87;;
16963;SDS011;8598;50.508;10.436;2023-04-25T14:03:12;4.27;;;2.40;;
16963;SDS011;8598;50.508;10.436;2023-04-25T14:05:38;5.20;;;2.47;;
16963;SDS011;8598;50.508;10.436;2023-04-25T14:08:07;5.00;;;1.87;;
16963;SDS011;8598;50.508;10.436;2023-04-25T14:10:35;3.73;;;1.77;;
16963;SDS011;8598;50.508;10.436;2023-04-25T14:13:03;4.63;;;3.00;;
16963;SDS011;8598;50.508;10.436;2023-04-25T14:15:30;6.27;;;2.13;;
16963;SDS011;8598;50.508;10.436;2023-04-25T14:17:57;6.70;;;2.70;;
16963;SDS011;8598;50.508;10.436;2023-04-25T14:20:25;8.07;;;2.33;;
16963;SDS011;8598;50.508;10.436;2023-04-25T14:22:51;7.27;;;2.23;;
16963;SDS011;8598;50.508;10.436;2023-04-25T14:25:21;6.63;;;2.90;;
16963;SDS011;8598;50.508;10.436;2023-04-25T14:27:48;5.63;;;2.30;;
16963;SDS011;8598;50.508;10.436;2023-04-25T14:30:15;6.17;;;2.50;;
16963;SDS011;8598;50.508;10.436;2023-04-25T14:32:43;4.37;;;2.27;;
16963;SDS011;8598;50.508;10.436;2023-04-25T14:35:11;4.07;;;2.23;;
16963;SDS011;8598;50.508;10.436;2023-04-25T14:37:37;7.27;;;2.00;;
16963;SDS011;8598;50.508;10.436;2023-04-25T14:40:05;9.33;;;2.00;;
16963;SDS011;8598;50.508;10.436;2023-04-25T14:42:35;2.80;;;1.73;;
16963;SDS011;8598;50.508;10.436;2023-04-25T14:45:02;7.07;;;2.33;;